Terminal Aerodrome Forecast
Issued by NWS Cleveland, OH

Home | Current Version | Previous Version | Text Only | Print | Product List | Glossary Off
Versions: 1 2 3 4 5 6 7 8 9 10 11 12 13 14 15 16 17 18 19 20 21 22 23 24 25 26 27 28 29

000
FTUS41 KCLE 212300
TAFCLE
TAF
KCLE 212329Z 2200/2306 28008KT P6SM FEW050 SCT090
     FM221000 26008KT P6SM VCSH BKN050 OVC090
     FM221200 32010KT P6SM BKN090
     FM221700 33012G20KT P6SM FEW040
     FM222300 35008KT P6SM FEW250=

USA.gov is the U.S. government's official web portal to all federal, state and local government web resources and services.